createdAt,value
2022-09-05T00:00:16.415Z,13.55
2022-09-05T00:01:16.379Z,13.48
2022-09-05T00:02:17.364Z,13.52
2022-09-05T00:03:16.486Z,13.45
2022-09-05T00:04:25.119Z,13.36
2022-09-05T00:05:17.366Z,13.45
2022-09-05T00:06:16.288Z,13.44
2022-09-05T00:07:41.280Z,13.45
2022-09-05T00:08:17.299Z,13.45
2022-09-05T00:09:16.282Z,13.46
2022-09-05T00:10:16.278Z,13.44
2022-09-05T00:11:42.826Z,13.41
2022-09-05T00:12:17.238Z,13.30
2022-09-05T00:13:16.244Z,13.32
2022-09-05T00:14:16.252Z,13.28
2022-09-05T00:15:18.908Z,13.20
2022-09-05T00:16:16.216Z,13.12
2022-09-05T00:17:16.165Z,13.14
2022-09-05T00:22:18.555Z,13.11
2022-09-05T00:23:12.111Z,13.08
2022-09-05T00:24:24.864Z,13.15
2022-09-05T00:24:25.693Z,13.10
2022-09-05T00:24:29.062Z,13.12
2022-09-05T00:24:30.905Z,13.14
2022-09-05T00:24:36.684Z,13.08
2022-09-05T00:25:32.950Z,13.14
2022-09-05T00:26:17.111Z,13.10
2022-09-05T00:27:16.059Z,13.14
2022-09-05T00:28:26.635Z,13.08
2022-09-05T00:29:20.429Z,13.11
2022-09-05T00:31:08.222Z,13.07
2022-09-05T00:31:54.489Z,13.10
2022-09-05T00:32:17.107Z,13.05
2022-09-05T00:33:17.193Z,12.97
2022-09-05T00:34:15.970Z,13.07
2022-09-05T00:35:15.978Z,13.03
2022-09-05T00:36:15.977Z,13.04
2022-09-05T00:37:17.028Z,13.07
2022-09-05T00:38:15.970Z,13.05
2022-09-05T00:39:15.919Z,13.07
2022-09-05T00:40:18.401Z,13.07
2022-09-05T00:41:15.924Z,13.00
2022-09-05T00:42:15.919Z,13.07
2022-09-05T00:43:15.905Z,13.00
2022-09-05T00:44:15.914Z,13.01
2022-09-05T00:45:19.451Z,13.08
2022-09-05T00:46:15.958Z,13.11
2022-09-05T00:47:15.864Z,13.07
2022-09-05T00:48:15.826Z,13.03
2022-09-05T00:49:15.832Z,13.07
2022-09-05T00:50:15.790Z,13.05
2022-09-05T00:51:15.787Z,13.10
2022-09-05T00:52:15.794Z,13.12
2022-09-05T00:53:15.804Z,13.12
2022-09-05T00:54:15.856Z,13.10
2022-09-05T00:55:15.738Z,13.07
2022-09-05T00:56:15.722Z,13.10
2022-09-05T00:57:18.155Z,13.10
2022-09-05T00:58:15.704Z,13.11
2022-09-05T00:59:15.730Z,13.10
2022-09-05T01:00:17.933Z,13.11
2022-09-05T01:01:21.004Z,13.12
2022-09-05T01:02:16.842Z,13.10
2022-09-05T01:03:15.857Z,13.11
2022-09-05T01:04:15.640Z,13.10
2022-09-05T01:05:15.635Z,13.17
2022-09-05T01:06:15.639Z,13.07
2022-09-05T01:07:15.652Z,13.11
2022-09-05T01:08:15.588Z,13.08
2022-09-05T01:09:15.607Z,13.04
2022-09-05T01:10:15.578Z,13.12
2022-09-05T01:11:15.587Z,13.08
2022-09-05T01:12:15.584Z,13.11
2022-09-05T01:13:15.530Z,13.08
2022-09-05T01:14:15.531Z,13.12
2022-09-05T01:15:15.545Z,13.07
2022-09-05T01:16:15.580Z,13.03
2022-09-05T01:17:15.494Z,13.00
2022-09-05T01:18:15.478Z,13.05
2022-09-05T01:19:15.920Z,12.95
2022-09-05T01:20:19.498Z,12.90
2022-09-05T01:21:15.454Z,12.92
2022-09-05T01:22:15.446Z,12.89
2022-09-05T01:23:15.471Z,12.83
2022-09-05T01:24:15.405Z,12.83
2022-09-05T01:25:15.399Z,12.78
2022-09-05T01:26:15.412Z,12.71
2022-09-05T01:27:15.379Z,12.68
2022-09-05T01:29:16.293Z,12.65
2022-09-05T01:29:19.559Z,12.70
2022-09-05T01:30:15.336Z,12.62
2022-09-05T01:31:15.417Z,12.72
2022-09-05T01:32:15.331Z,12.62
2022-09-05T01:33:15.319Z,12.62
2022-09-05T01:34:15.292Z,12.53
2022-09-05T01:35:15.285Z,12.65
2022-09-05T01:36:15.270Z,12.53
2022-09-05T01:37:33.711Z,12.62
2022-09-05T01:38:16.273Z,12.47
2022-09-05T01:39:39.292Z,12.46
2022-09-05T01:40:17.037Z,12.52
2022-09-05T01:41:18.599Z,12.47
2022-09-05T01:42:15.249Z,12.54
2022-09-05T01:43:15.194Z,12.59
2022-09-05T01:44:15.188Z,12.50
2022-09-05T01:45:15.170Z,12.54
2022-09-05T01:46:15.235Z,12.52
2022-09-05T01:47:15.165Z,12.62
2022-09-05T01:48:16.179Z,12.54
2022-09-05T01:49:15.132Z,12.56
2022-09-05T01:50:15.167Z,12.53
2022-09-05T01:51:28.877Z,12.59
2022-09-05T01:52:16.100Z,12.59
2022-09-05T01:53:15.079Z,12.62
2022-09-05T01:54:23.750Z,12.56
2022-09-05T01:55:16.085Z,12.60
2022-09-05T01:56:15.067Z,12.67
2022-09-05T01:57:16.110Z,12.62
2022-09-05T01:58:15.019Z,12.57
2022-09-05T01:59:15.028Z,12.64
2022-09-05T02:00:15.005Z,12.64
2022-09-05T02:01:30.136Z,12.60
2022-09-05T02:02:16.192Z,12.67
2022-09-05T02:03:15.006Z,12.62
2022-09-05T02:04:14.954Z,12.62
2022-09-05T02:05:14.936Z,12.60
2022-09-05T02:06:14.943Z,12.62
2022-09-05T02:07:19.436Z,12.62
2022-09-05T02:08:15.969Z,12.57
2022-09-05T02:09:14.889Z,12.64
2022-09-05T02:10:14.881Z,12.56
2022-09-05T02:11:14.875Z,12.62
2022-09-05T02:12:14.909Z,12.59
2022-09-05T02:13:14.886Z,12.54
2022-09-05T02:14:14.834Z,12.52
2022-09-05T02:15:15.825Z,12.46
2022-09-05T02:16:14.959Z,12.46
2022-09-05T02:17:23.374Z,12.46
2022-09-05T02:18:15.786Z,12.46
2022-09-05T02:19:14.825Z,12.38
2022-09-05T02:20:14.765Z,12.41
2022-09-05T02:21:15.788Z,12.42
2022-09-05T02:22:14.752Z,12.32
2022-09-05T02:23:38.927Z,12.42
2022-09-05T02:24:15.771Z,12.35
2022-09-05T02:26:01.268Z,12.38
2022-09-05T02:26:15.696Z,12.37
2022-09-05T02:27:31.855Z,12.35
2022-09-05T02:28:15.697Z,12.42
2022-09-05T02:29:28.935Z,12.37
2022-09-05T02:30:15.719Z,12.32
2022-09-05T02:31:20.205Z,12.32
2022-09-05T02:32:15.673Z,12.29
2022-09-05T02:33:14.620Z,12.31
2022-09-05T02:34:14.625Z,12.34
2022-09-05T02:35:14.617Z,12.31
2022-09-05T02:36:14.635Z,12.29
2022-09-05T02:37:14.575Z,12.24
2022-09-05T02:40:59.863Z,12.21
2022-09-05T02:45:03.804Z,12.21
2022-09-05T02:45:06.239Z,12.16
2022-09-05T02:45:11.421Z,12.14
2022-09-05T02:45:15.180Z,12.13
2022-09-05T02:45:18.590Z,12.20
2022-09-05T02:45:21.085Z,12.14
2022-09-05T02:45:25.812Z,12.17
2022-09-05T02:46:15.519Z,12.09
2022-09-05T02:47:14.464Z,12.21
2022-09-05T02:48:15.725Z,12.20
2022-09-05T02:52:38.098Z,12.17
2022-09-05T02:52:42.427Z,12.10
2022-09-05T02:57:25.826Z,12.02
2022-09-05T02:57:29.160Z,12.12
2022-09-05T02:57:29.659Z,12.02
2022-09-05T02:57:35.416Z,11.99
2022-09-05T02:57:39.467Z,12.12
2022-09-05T02:57:42.313Z,12.07
2022-09-05T02:57:46.493Z,12.07
2022-09-05T02:58:15.907Z,12.01
2022-09-05T02:59:14.479Z,12.04
2022-09-05T03:00:14.318Z,12.01
2022-09-05T03:01:14.403Z,12.07
2022-09-05T03:02:25.249Z,12.05
2022-09-05T03:03:15.500Z,12.05
2022-09-05T03:04:14.284Z,12.02
2022-09-05T03:05:14.268Z,12.01
2022-09-05T03:06:14.256Z,11.99
2022-09-05T03:07:14.240Z,12.05
2022-09-05T03:08:14.269Z,12.01
2022-09-05T03:09:16.945Z,12.04
2022-09-05T03:10:14.219Z,11.96
2022-09-05T03:11:14.194Z,11.94
2022-09-05T03:12:29.450Z,11.94
2022-09-05T03:13:15.224Z,12.05
2022-09-05T03:14:14.208Z,11.98
2022-09-05T03:15:18.813Z,12.01
2022-09-05T03:16:15.213Z,11.95
2022-09-05T03:17:14.126Z,11.91
2022-09-05T03:18:31.422Z,11.91
2022-09-05T03:19:15.130Z,11.91
2022-09-05T03:20:14.130Z,12.05
2022-09-05T03:21:14.120Z,12.10
2022-09-05T03:22:14.075Z,12.01
2022-09-05T03:23:21.984Z,12.01
2022-09-05T03:24:14.052Z,12.01
2022-09-05T03:25:14.083Z,12.01
2022-09-05T03:26:14.056Z,12.02
2022-09-05T03:27:14.016Z,11.90
2022-09-05T03:28:14.043Z,11.95
2022-09-05T03:29:14.005Z,11.96
2022-09-05T03:30:13.992Z,11.96
2022-09-05T03:31:20.563Z,12.01
2022-09-05T03:32:14.960Z,11.94
2022-09-05T03:33:14.001Z,11.91
2022-09-05T03:34:13.938Z,12.01
2022-09-05T03:35:13.926Z,12.07
2022-09-05T03:36:13.932Z,11.90
2022-09-05T03:37:13.934Z,11.98
2022-09-05T03:38:13.944Z,11.99
2022-09-05T03:39:13.935Z,11.96
2022-09-05T03:40:15.211Z,11.95
2022-09-05T03:41:13.859Z,11.96
2022-09-05T03:42:14.622Z,11.90
2022-09-05T03:43:13.864Z,11.83
2022-09-05T03:44:13.881Z,11.82
2022-09-05T03:45:13.817Z,11.79
2022-09-05T03:46:13.941Z,11.73
2022-09-05T03:47:13.820Z,11.72
2022-09-05T03:48:23.075Z,11.72
2022-09-05T03:49:17.612Z,11.73
2022-09-05T03:55:12.142Z,11.70
2022-09-05T03:57:04.529Z,11.76
2022-09-05T03:57:10.353Z,11.80
2022-09-05T03:57:14.288Z,11.72
2022-09-05T03:57:14.440Z,11.73
2022-09-05T03:57:16.382Z,11.86
2022-09-05T03:57:25.337Z,11.78
2022-09-05T03:57:32.277Z,11.82
2022-09-05T03:58:16.950Z,11.79
2022-09-05T03:59:13.700Z,11.78
2022-09-05T04:00:13.651Z,11.78
2022-09-05T04:03:20.248Z,11.76
2022-09-05T04:06:58.312Z,11.73
2022-09-05T04:08:06.417Z,11.78
2022-09-05T04:08:08.423Z,11.67
2022-09-05T04:08:18.448Z,11.73
2022-09-05T04:08:19.030Z,11.67
2022-09-05T04:08:31.416Z,11.76
2022-09-05T04:08:34.236Z,11.65
2022-09-05T04:09:22.720Z,11.60
2022-09-05T04:10:14.726Z,11.57
2022-09-05T04:11:13.560Z,11.69
2022-09-05T04:12:13.553Z,11.58
2022-09-05T04:13:13.501Z,11.65
2022-09-05T04:14:13.526Z,11.58
2022-09-05T04:15:13.481Z,11.65
2022-09-05T04:16:13.556Z,11.54
2022-09-05T04:17:13.486Z,11.61
2022-09-05T04:18:13.487Z,11.55
2022-09-05T04:19:13.464Z,11.67
2022-09-05T04:20:13.438Z,11.65
2022-09-05T04:21:13.420Z,11.70
2022-09-05T04:22:13.422Z,11.64
2022-09-05T04:23:13.391Z,11.64
2022-09-05T04:24:13.399Z,11.62
2022-09-05T04:25:13.446Z,11.72
2022-09-05T04:26:13.385Z,11.55
2022-09-05T04:27:13.359Z,11.60
2022-09-05T04:28:13.354Z,11.57
2022-09-05T04:29:13.327Z,11.55
2022-09-05T04:30:38.634Z,11.64
2022-09-05T04:31:14.333Z,11.65
2022-09-05T04:32:19.040Z,11.61
2022-09-05T04:33:14.323Z,11.58
2022-09-05T04:34:13.291Z,11.58
2022-09-05T04:35:13.266Z,11.62
2022-09-05T04:36:18.210Z,11.65
2022-09-05T04:37:14.249Z,11.60
2022-09-05T04:38:13.230Z,11.65
2022-09-05T04:39:13.225Z,11.64
2022-09-05T04:40:13.246Z,11.72
2022-09-05T04:41:13.242Z,11.64
2022-09-05T04:42:13.223Z,11.76
2022-09-05T04:43:13.166Z,11.70
2022-09-05T04:44:13.169Z,11.69
2022-09-05T04:45:13.151Z,11.67
2022-09-05T04:46:18.277Z,11.72
2022-09-05T04:47:15.591Z,11.70
2022-09-05T04:48:13.119Z,11.72
2022-09-05T04:49:13.104Z,11.72
2022-09-05T04:50:13.098Z,11.72
2022-09-05T04:51:13.296Z,11.75
2022-09-05T04:52:13.810Z,11.72
2022-09-05T04:53:14.058Z,11.78
2022-09-05T04:54:13.067Z,11.67
2022-09-05T04:55:13.064Z,11.72
2022-09-05T04:56:13.035Z,11.69
2022-09-05T04:57:14.542Z,11.65
2022-09-05T04:58:13.014Z,11.64
2022-09-05T05:03:18.629Z,11.72
2022-09-05T05:05:42.102Z,11.73
2022-09-05T05:06:02.110Z,11.76
2022-09-05T05:06:05.740Z,11.78
2022-09-05T05:06:08.909Z,11.85
2022-09-05T05:06:12.748Z,11.73
2022-09-05T05:06:16.673Z,11.76
2022-09-05T05:06:44.054Z,11.75
2022-09-05T05:07:14.030Z,11.73
2022-09-05T05:08:13.047Z,11.67
2022-09-05T05:09:12.881Z,11.65
2022-09-05T05:10:57.403Z,11.65
2022-09-05T05:17:25.336Z,11.73
2022-09-05T05:17:53.699Z,11.69
2022-09-05T05:18:03.289Z,11.67
2022-09-05T05:18:08.807Z,11.80
2022-09-05T05:18:10.385Z,11.73
2022-09-05T05:18:12.650Z,11.78
2022-09-05T05:18:14.682Z,11.73
2022-09-05T05:18:40.987Z,11.73
2022-09-05T05:19:18.753Z,11.73
2022-09-05T05:20:43.056Z,11.80
2022-09-05T05:21:13.756Z,11.82
2022-09-05T05:22:12.739Z,11.85
2022-09-05T05:23:12.746Z,11.88
2022-09-05T05:24:12.738Z,11.94
2022-09-05T05:25:12.724Z,11.94
2022-09-05T05:26:12.698Z,11.95
2022-09-05T05:27:12.745Z,11.95
2022-09-05T05:28:22.579Z,12.07
2022-09-05T05:29:18.834Z,12.02
2022-09-05T05:30:13.680Z,12.02
2022-09-05T05:31:12.684Z,12.07
2022-09-05T05:32:12.644Z,12.13
2022-09-05T05:33:13.638Z,12.10
2022-09-05T05:34:24.562Z,12.19
2022-09-05T05:35:13.616Z,12.23
2022-09-05T05:36:12.572Z,12.27
2022-09-05T05:37:12.691Z,12.31
2022-09-05T05:38:12.548Z,12.37
2022-09-05T05:39:12.552Z,12.38
2022-09-05T05:40:12.664Z,12.35
2022-09-05T05:41:12.539Z,12.39
2022-09-05T05:42:20.980Z,12.41
2022-09-05T05:43:13.500Z,12.49
2022-09-05T05:44:12.482Z,12.42
2022-09-05T05:45:12.475Z,12.53
2022-09-05T05:46:12.558Z,12.52
2022-09-05T05:47:12.479Z,12.60
2022-09-05T05:48:12.481Z,12.57
2022-09-05T05:49:12.441Z,12.56
2022-09-05T05:50:12.422Z,12.62
2022-09-05T05:51:12.429Z,12.62
2022-09-05T05:52:12.415Z,12.62
2022-09-05T05:53:12.382Z,12.62
2022-09-05T05:54:13.370Z,12.64
2022-09-05T05:55:50.600Z,12.65
2022-09-05T05:56:13.363Z,12.75
2022-09-05T05:57:14.982Z,12.72
2022-09-05T05:58:12.358Z,12.86
2022-09-05T05:59:12.317Z,12.89
2022-09-05T06:00:13.440Z,12.89
2022-09-05T06:01:23.085Z,12.93
2022-09-05T06:02:13.399Z,12.95
2022-09-05T06:03:26.226Z,13.03
2022-09-05T06:04:13.270Z,13.08
2022-09-05T06:05:12.287Z,13.05
2022-09-05T06:06:12.236Z,13.08
2022-09-05T06:07:12.236Z,13.20
2022-09-05T06:12:06.968Z,13.22
2022-09-05T06:12:38.765Z,13.15
2022-09-05T06:14:48.507Z,13.17
2022-09-05T06:15:02.059Z,13.30
2022-09-05T06:15:04.035Z,13.41
2022-09-05T06:15:06.176Z,13.45
2022-09-05T06:15:06.828Z,13.29
2022-09-05T06:15:17.738Z,13.46
2022-09-05T06:16:13.205Z,13.51
2022-09-05T06:17:12.126Z,13.54
2022-09-05T06:18:12.105Z,13.62
2022-09-05T06:19:12.089Z,13.64
2022-09-05T06:22:07.008Z,13.67
2022-09-05T06:22:09.314Z,13.71
2022-09-05T06:22:16.844Z,13.73
2022-09-05T06:23:32.105Z,13.79
2022-09-05T06:24:13.042Z,13.88
2022-09-05T06:25:17.034Z,13.92
2022-09-05T06:26:13.028Z,14.00
2022-09-05T06:27:12.047Z,14.07
2022-09-05T06:28:18.396Z,14.09
2022-09-05T06:29:13.001Z,14.22
2022-09-05T06:30:12.017Z,14.36
2022-09-05T06:31:30.440Z,14.37
2022-09-05T06:32:13.565Z,14.50
2022-09-05T06:33:11.933Z,14.46
2022-09-05T06:34:27.260Z,14.54
2022-09-05T06:35:12.914Z,14.73
2022-09-05T06:36:11.919Z,14.70
2022-09-05T06:37:11.905Z,14.88
2022-09-05T06:38:11.911Z,14.92
2022-09-05T06:39:11.981Z,14.98
2022-09-05T06:40:12.002Z,15.07
2022-09-05T06:41:11.876Z,15.14
2022-09-05T06:42:15.077Z,15.21
2022-09-05T06:43:12.831Z,15.27
2022-09-05T06:44:11.851Z,15.27
2022-09-05T06:45:27.466Z,15.41
2022-09-05T06:46:12.824Z,15.36
2022-09-05T06:47:24.427Z,15.51
2022-09-05T06:48:13.621Z,15.57
2022-09-05T06:49:30.116Z,15.67
2022-09-05T06:50:27.209Z,15.65
2022-09-05T06:51:12.775Z,15.71
2022-09-05T06:52:16.567Z,15.76
2022-09-05T06:53:19.544Z,15.84
2022-09-05T06:54:12.702Z,15.97
2022-09-05T06:55:11.683Z,15.97
2022-09-05T06:56:11.686Z,16.01
2022-09-05T06:57:11.722Z,16.05
2022-09-05T06:58:11.694Z,16.14
2022-09-05T06:59:11.648Z,16.23
2022-09-05T07:00:19.587Z,16.30
2022-09-05T07:01:12.818Z,16.30
2022-09-05T07:02:11.746Z,16.28
2022-09-05T07:03:13.482Z,16.41
2022-09-05T07:04:33.234Z,16.45
2022-09-05T07:05:36.971Z,16.50
2022-09-05T07:06:19.835Z,16.63
2022-09-05T07:07:12.569Z,16.75
2022-09-05T07:08:33.462Z,16.79
2022-09-05T07:09:12.536Z,16.78
2022-09-05T07:10:35.024Z,16.79
2022-09-05T07:11:16.728Z,16.97
2022-09-05T07:12:11.487Z,16.93
2022-09-05T07:13:11.503Z,17.00
2022-09-05T07:14:11.482Z,16.91
2022-09-05T07:15:11.460Z,17.00
2022-09-05T07:16:11.590Z,17.08
2022-09-05T07:17:11.466Z,17.01
2022-09-05T07:18:11.432Z,17.06
2022-09-05T07:19:11.430Z,17.07
2022-09-05T07:20:11.432Z,17.16
2022-09-05T07:21:17.336Z,17.15
2022-09-05T07:22:46.040Z,17.22
2022-09-05T07:23:47.676Z,17.33
2022-09-05T07:24:12.944Z,17.31
2022-09-05T07:25:11.377Z,17.37
2022-09-05T07:26:29.320Z,17.44
2022-09-05T07:27:12.697Z,17.41
2022-09-05T07:28:28.555Z,17.52
2022-09-05T07:29:12.300Z,17.44
2022-09-05T07:30:11.301Z,17.51
2022-09-05T07:31:11.384Z,17.48
2022-09-05T07:32:11.339Z,17.59
2022-09-05T07:33:11.258Z,17.52
2022-09-05T07:34:21.119Z,17.62
2022-09-05T07:35:12.274Z,17.58
2022-09-05T07:36:11.242Z,17.72
2022-09-05T07:37:15.442Z,17.68
2022-09-05T07:38:11.202Z,17.71
2022-09-05T07:39:28.343Z,17.77
2022-09-05T07:40:26.316Z,17.77
2022-09-05T07:41:12.193Z,17.84
2022-09-05T07:42:11.170Z,17.84
2022-09-05T07:43:11.141Z,17.87
2022-09-05T07:44:11.148Z,17.96
2022-09-05T07:45:11.139Z,17.97
2022-09-05T07:46:11.260Z,18.00
2022-09-05T07:47:11.121Z,18.11
2022-09-05T07:48:11.131Z,18.11
2022-09-05T07:49:11.075Z,18.03
2022-09-05T07:51:36.097Z,18.14
2022-09-05T07:56:46.587Z,18.15
2022-09-05T07:56:54.607Z,18.11
2022-09-05T07:56:54.862Z,18.30
2022-09-05T07:56:58.769Z,18.32
2022-09-05T07:56:58.769Z,18.23
2022-09-05T07:57:07.930Z,18.37
2022-09-05T07:57:27.192Z,18.36
2022-09-05T07:58:12.011Z,18.37
2022-09-05T07:59:10.984Z,18.33
2022-09-05T08:00:26.637Z,18.44
2022-09-05T08:01:12.043Z,18.48
2022-09-05T08:02:10.930Z,18.52
2022-09-05T08:03:10.915Z,18.50
2022-09-05T08:04:10.922Z,18.52
2022-09-05T08:05:10.975Z,18.60
2022-09-05T08:06:10.899Z,18.60
2022-09-05T08:07:45.716Z,18.58
2022-09-05T08:08:11.875Z,18.67
2022-09-05T08:10:05.210Z,18.66
2022-09-05T08:10:15.865Z,18.69
2022-09-05T08:11:22.842Z,18.70
2022-09-05T08:12:11.855Z,18.78
2022-09-05T08:13:23.574Z,18.81
2022-09-05T08:14:40.571Z,18.80
2022-09-05T08:15:14.166Z,18.82
2022-09-05T08:16:13.640Z,18.76
2022-09-05T08:17:10.758Z,18.84
2022-09-05T08:18:10.768Z,18.88
2022-09-05T08:19:10.771Z,18.95
2022-09-05T08:20:10.725Z,18.95
2022-09-05T08:21:10.712Z,18.99
2022-09-05T08:22:10.719Z,19.04
2022-09-05T08:23:10.701Z,19.14
2022-09-05T08:24:13.184Z,19.14
2022-09-05T08:25:10.754Z,19.16
2022-09-05T08:26:10.662Z,19.21
2022-09-05T08:27:16.112Z,19.26
2022-09-05T08:28:11.643Z,19.26
2022-09-05T08:29:10.641Z,19.28
2022-09-05T08:30:26.652Z,19.23
2022-09-05T08:31:11.704Z,19.25
2022-09-05T08:32:10.591Z,19.33
2022-09-05T08:33:11.920Z,19.40
2022-09-05T08:34:10.569Z,19.39
2022-09-05T08:35:10.563Z,19.41
2022-09-05T08:36:10.543Z,19.47
2022-09-05T08:37:10.547Z,19.47
2022-09-05T08:38:10.598Z,19.54
2022-09-05T08:39:10.555Z,19.59
2022-09-05T08:40:12.079Z,19.63
2022-09-05T08:41:10.511Z,19.74
2022-09-05T08:42:10.477Z,19.73
2022-09-05T08:46:36.584Z,19.87
2022-09-05T08:46:37.993Z,19.80
2022-09-05T08:46:40.699Z,20.02
2022-09-05T08:46:40.699Z,19.96
2022-09-05T08:47:11.500Z,19.96
2022-09-05T08:48:10.409Z,20.06
2022-09-05T08:49:12.399Z,20.01
2022-09-05T08:50:11.400Z,20.10
2022-09-05T08:51:10.383Z,20.11
2022-09-05T08:52:10.374Z,20.11
2022-09-05T08:53:26.830Z,20.23
2022-09-05T08:54:11.605Z,20.28
2022-09-05T08:55:10.358Z,20.31
2022-09-05T08:56:10.317Z,20.38
2022-09-05T08:57:10.319Z,20.38
2022-09-05T08:58:10.317Z,20.38
2022-09-05T08:59:31.601Z,20.43
2022-09-05T09:00:18.528Z,20.54
2022-09-05T09:01:11.845Z,20.52
2022-09-05T09:02:46.673Z,20.55
2022-09-05T09:03:11.311Z,20.55
2022-09-05T09:04:11.519Z,20.61
2022-09-05T09:05:14.686Z,20.67
2022-09-05T09:06:13.760Z,20.70
2022-09-05T09:07:47.264Z,20.77
2022-09-05T09:08:11.204Z,20.79
2022-09-05T09:09:10.195Z,20.77
2022-09-05T09:10:10.160Z,20.80
2022-09-05T09:11:10.173Z,20.77
2022-09-05T09:12:10.152Z,20.87
2022-09-05T09:13:10.161Z,20.85
2022-09-05T09:14:10.135Z,20.88
2022-09-05T09:15:10.125Z,20.87
2022-09-05T09:16:10.153Z,20.88
2022-09-05T09:17:10.095Z,20.94
2022-09-05T09:18:10.363Z,21.14
2022-09-05T09:19:10.066Z,21.16
2022-09-05T09:20:10.068Z,21.14
2022-09-05T09:21:10.043Z,21.14
2022-09-05T09:22:10.048Z,21.22
2022-09-05T09:23:30.452Z,21.21
2022-09-05T09:24:11.011Z,21.21
2022-09-05T09:25:14.436Z,21.22
2022-09-05T09:26:10.994Z,21.25
2022-09-05T09:27:09.974Z,21.34
2022-09-05T09:28:49.645Z,21.37
2022-09-05T09:29:10.953Z,21.35
2022-09-05T09:30:09.936Z,21.53
2022-09-05T09:31:10.001Z,21.46
2022-09-05T09:32:09.910Z,21.52
2022-09-05T09:33:09.899Z,21.47
2022-09-05T09:34:09.920Z,21.58
2022-09-05T09:35:09.908Z,21.52
2022-09-05T09:36:09.878Z,21.50
2022-09-05T09:37:09.886Z,21.52
2022-09-05T09:38:09.848Z,21.62
2022-09-05T09:39:25.992Z,21.62
2022-09-05T09:40:10.928Z,21.59
2022-09-05T09:41:09.869Z,21.65
2022-09-05T09:42:09.818Z,21.67
2022-09-05T09:43:10.813Z,21.68
2022-09-05T09:44:09.786Z,21.77
2022-09-05T09:45:22.979Z,21.82
2022-09-05T09:46:10.820Z,21.79
2022-09-05T09:47:09.749Z,21.79
2022-09-05T09:48:09.759Z,21.83
2022-09-05T09:49:22.757Z,21.83
2022-09-05T09:50:10.722Z,21.94
2022-09-05T09:51:09.710Z,21.96
2022-09-05T09:52:20.629Z,22.05
2022-09-05T09:53:10.702Z,22.05
2022-09-05T09:54:09.706Z,22.10
2022-09-05T09:55:09.660Z,22.10
2022-09-05T09:56:10.664Z,22.14
2022-09-05T09:57:09.647Z,22.12
2022-09-05T09:58:09.623Z,22.21
2022-09-05T09:59:09.615Z,22.18
2022-09-05T10:00:09.626Z,22.17
2022-09-05T10:01:35.366Z,22.25
2022-09-05T10:03:02.180Z,22.28
2022-09-05T10:09:50.553Z,22.33
2022-09-05T10:09:52.530Z,22.33
2022-09-05T10:10:36.342Z,22.31
2022-09-05T10:10:38.624Z,22.36
2022-09-05T10:10:44.036Z,22.31
2022-09-05T10:10:50.601Z,22.28
2022-09-05T10:10:50.761Z,22.36
2022-09-05T10:10:53.340Z,22.33
2022-09-05T10:12:10.566Z,22.43
2022-09-05T10:13:09.462Z,22.40
2022-09-05T10:14:09.736Z,22.45
2022-09-05T10:15:30.491Z,22.51
2022-09-05T10:16:10.531Z,22.60
2022-09-05T10:17:09.476Z,22.61
2022-09-05T10:18:09.425Z,22.62
2022-09-05T10:19:09.399Z,22.68
2022-09-05T10:20:11.194Z,22.65
2022-09-05T10:21:16.152Z,22.64
2022-09-05T10:23:10.350Z,22.64
2022-09-05T10:24:09.382Z,22.72
2022-09-05T10:25:16.506Z,22.79
2022-09-05T10:26:10.316Z,22.77
2022-09-05T10:27:09.360Z,22.80
2022-09-05T10:28:09.304Z,22.75
2022-09-05T10:29:36.804Z,22.79
2022-09-05T10:30:10.377Z,22.77
2022-09-05T10:32:34.699Z,22.90
2022-09-05T10:35:02.828Z,22.91
2022-09-05T10:35:17.074Z,22.97
2022-09-05T10:35:21.132Z,22.94
2022-09-05T10:35:22.834Z,22.97
2022-09-05T10:36:13.977Z,22.90
2022-09-05T10:37:10.201Z,22.91
2022-09-05T10:38:10.613Z,22.95
2022-09-05T10:39:13.540Z,23.04
2022-09-05T10:40:09.227Z,23.19
2022-09-05T10:41:22.587Z,23.17
2022-09-05T10:42:10.167Z,23.31
2022-09-05T10:43:09.158Z,23.40
2022-09-05T10:44:09.123Z,23.31
2022-09-05T10:45:09.094Z,23.39
2022-09-05T10:46:09.227Z,23.50
2022-09-05T10:47:09.198Z,23.51
2022-09-05T10:48:13.029Z,23.57
2022-09-05T10:49:09.068Z,23.55
2022-09-05T10:50:09.145Z,23.54
2022-09-05T10:51:09.057Z,23.55
2022-09-05T10:52:18.655Z,23.46
2022-09-05T10:53:10.005Z,23.47
2022-09-05T10:54:09.022Z,23.43
2022-09-05T10:55:15.235Z,23.40
2022-09-05T10:56:10.018Z,23.36
2022-09-05T10:57:08.962Z,23.40
2022-09-05T10:58:09.002Z,23.35
2022-09-05T11:02:16.277Z,23.35
2022-09-05T11:02:20.877Z,23.35
2022-09-05T11:02:26.378Z,23.39
2022-09-05T11:02:29.554Z,23.33
2022-09-05T11:03:33.644Z,23.32
2022-09-05T11:04:10.000Z,23.38
2022-09-05T11:05:08.916Z,23.36
2022-09-05T11:06:09.619Z,23.39
2022-09-05T11:07:08.866Z,23.50
2022-09-05T11:08:08.851Z,23.50
2022-09-05T11:09:11.282Z,23.55
2022-09-05T11:10:09.967Z,23.50
2022-09-05T11:11:08.832Z,23.54
2022-09-05T11:12:09.794Z,23.61
2022-09-05T11:13:08.804Z,23.53
2022-09-05T11:14:08.778Z,23.63
2022-09-05T11:15:09.782Z,23.65
2022-09-05T11:16:12.730Z,23.70
2022-09-05T11:17:08.740Z,23.78
2022-09-05T11:18:08.742Z,23.80
2022-09-05T11:19:08.719Z,23.76
2022-09-05T11:20:20.770Z,23.84
2022-09-05T11:21:09.737Z,23.80
2022-09-05T11:22:22.904Z,23.79
2022-09-05T11:23:09.669Z,23.85
2022-09-05T11:24:08.686Z,23.79
2022-09-05T11:25:08.685Z,23.78
2022-09-05T11:26:08.664Z,23.78
2022-09-05T11:27:24.948Z,23.91
2022-09-05T11:28:09.626Z,23.85
2022-09-05T11:29:08.650Z,23.79
2022-09-05T11:30:08.624Z,23.80
2022-09-05T11:31:08.675Z,23.80
2022-09-05T11:32:30.349Z,23.88
2022-09-05T11:39:50.834Z,23.98
2022-09-05T11:39:52.067Z,23.91
2022-09-05T11:39:52.354Z,23.94
2022-09-05T11:39:57.302Z,23.87
2022-09-05T11:39:57.826Z,23.84
2022-09-05T11:40:00.370Z,23.85
2022-09-05T11:40:09.798Z,24.02
2022-09-05T11:40:28.270Z,24.00
2022-09-05T11:41:12.922Z,24.02
2022-09-05T11:42:08.517Z,24.02
2022-09-05T11:43:08.451Z,24.21
2022-09-05T11:44:08.473Z,24.20
2022-09-05T11:45:09.448Z,24.21
2022-09-05T11:46:08.501Z,24.34
2022-09-05T11:47:27.916Z,24.32
2022-09-05T11:48:09.423Z,24.34
2022-09-05T11:49:08.419Z,24.35
2022-09-05T11:50:09.378Z,24.39
2022-09-05T11:51:08.372Z,24.34
2022-09-05T11:52:08.366Z,24.34
2022-09-05T11:53:08.342Z,24.31
2022-09-05T11:54:08.328Z,24.35
2022-09-05T11:55:08.334Z,24.34
2022-09-05T11:56:09.354Z,24.35
2022-09-05T11:57:32.573Z,24.35
2022-09-05T11:58:43.255Z,24.35
2022-09-05T11:59:09.275Z,24.42
2022-09-05T12:00:31.964Z,24.42
2022-09-05T12:01:41.788Z,24.40
2022-09-05T12:02:23.311Z,24.40
2022-09-05T12:03:09.224Z,24.37
2022-09-05T12:04:09.845Z,24.34
2022-09-05T12:05:50.089Z,24.35
2022-09-05T12:06:09.716Z,24.39
2022-09-05T12:07:26.237Z,24.32
2022-09-05T12:08:09.294Z,24.40
2022-09-05T12:09:08.186Z,24.47
2022-09-05T12:10:08.151Z,24.47
2022-09-05T12:11:08.143Z,24.53
2022-09-05T12:12:18.695Z,24.55
2022-09-05T12:13:09.123Z,24.46
2022-09-05T12:14:21.304Z,24.58
2022-09-05T12:15:09.112Z,24.55
2022-09-05T12:16:10.334Z,24.57
2022-09-05T12:17:10.263Z,24.62
2022-09-05T12:18:18.853Z,24.65
2022-09-05T12:19:18.929Z,24.68
2022-09-05T12:20:17.155Z,24.62
2022-09-05T12:21:17.496Z,24.71
2022-09-05T12:22:16.204Z,24.67
2022-09-05T12:23:19.563Z,24.77
2022-09-05T12:24:48.158Z,24.69
2022-09-05T12:25:25.711Z,24.68
2022-09-05T12:27:39.511Z,24.84
2022-09-05T12:27:44.878Z,24.76
2022-09-05T12:29:25.996Z,24.85
2022-09-05T12:29:32.841Z,24.90
2022-09-05T12:30:08.948Z,24.91
2022-09-05T12:32:31.157Z,24.91
2022-09-05T12:33:01.424Z,25.03
2022-09-05T12:36:02.502Z,25.05
2022-09-05T12:36:09.769Z,25.08
2022-09-05T12:36:12.957Z,25.06
2022-09-05T12:40:15.695Z,25.13
2022-09-05T12:40:46.154Z,25.09
2022-09-05T12:40:46.237Z,25.08
2022-09-05T12:40:59.543Z,25.10
2022-09-05T12:41:36.873Z,24.98
2022-09-05T12:41:43.842Z,25.08
2022-09-05T12:42:19.947Z,25.06
2022-09-05T12:44:38.963Z,25.08
2022-09-05T12:44:39.060Z,25.14
2022-09-05T12:45:09.072Z,25.15
2022-09-05T12:46:13.073Z,25.18
2022-09-05T12:47:19.133Z,25.27
2022-09-05T12:48:07.773Z,25.35
2022-09-05T12:49:07.828Z,25.33
2022-09-05T12:50:14.858Z,25.36
2022-09-05T12:51:08.741Z,25.38
2022-09-05T12:52:07.698Z,25.38
2022-09-05T12:53:07.729Z,25.40
2022-09-05T12:54:24.536Z,25.45